createdAt,value
2023-02-26T00:01:52.691Z,84.46
2023-02-26T00:06:57.352Z,84.29
2023-02-26T00:12:06.370Z,84.07
2023-02-26T00:17:36.813Z,84.31
2023-02-26T00:22:41.868Z,84.04
2023-02-26T00:27:44.037Z,84.37
2023-02-26T00:32:48.713Z,83.89
2023-02-26T00:38:00.936Z,83.83
2023-02-26T00:43:05.106Z,83.85
2023-02-26T00:48:35.441Z,84.03
2023-02-26T00:54:33.289Z,84.04
2023-02-26T00:59:34.910Z,84.24
2023-02-26T01:04:37.475Z,84.19
2023-02-26T01:09:39.672Z,84.52
2023-02-26T01:14:41.581Z,84.58
2023-02-26T01:19:56.728Z,83.94
2023-02-26T01:25:14.460Z,84.26
2023-02-26T01:30:17.098Z,84.37
2023-02-26T01:35:43.848Z,84.37
2023-02-26T01:41:08.018Z,84.43
2023-02-26T01:46:36.032Z,84.51
2023-02-26T01:51:48.413Z,84.49
2023-02-26T01:57:05.049Z,84.88
2023-02-26T02:02:10.441Z,84.91
2023-02-26T02:07:12.510Z,84.83
2023-02-26T02:12:14.285Z,84.97
2023-02-26T02:17:37.550Z,85.48
2023-02-26T02:22:52.602Z,85.47
2023-02-26T02:28:36.198Z,85.72
2023-02-26T02:33:49.866Z,86.09
2023-02-26T02:38:58.146Z,86.61
2023-02-26T02:44:03.611Z,86.65
2023-02-26T02:49:27.355Z,86.04
2023-02-26T02:54:47.038Z,85.55
2023-02-26T02:59:54.465Z,84.47
2023-02-26T03:04:57.305Z,84.39
2023-02-26T03:09:59.115Z,83.84
2023-02-26T03:15:02.134Z,83.51
2023-02-26T03:20:26.329Z,83.01
2023-02-26T03:25:54.457Z,82.61
2023-02-26T03:31:03.269Z,82.78
2023-02-26T03:36:21.033Z,82.28
2023-02-26T03:41:49.936Z,82.60
2023-02-26T03:46:56.933Z,81.89
2023-02-26T03:52:03.129Z,82.01
2023-02-26T03:57:23.746Z,82.45
2023-02-26T04:03:28.682Z,82.42
2023-02-26T04:08:31.798Z,82.19
2023-02-26T04:13:33.790Z,81.55
2023-02-26T04:18:37.154Z,81.39
2023-02-26T04:23:40.002Z,81.49
2023-02-26T04:28:42.320Z,81.92
2023-02-26T04:33:44.319Z,82.40
2023-02-26T04:38:46.610Z,82.16
2023-02-26T04:43:48.856Z,82.27
2023-02-26T04:49:00.799Z,82.35
2023-02-26T04:54:02.704Z,82.41
2023-02-26T04:59:04.420Z,82.39
2023-02-26T05:04:10.477Z,82.25
2023-02-26T05:09:12.847Z,81.67
2023-02-26T05:14:15.793Z,81.45
2023-02-26T05:19:17.707Z,81.26
2023-02-26T05:24:21.279Z,80.71
2023-02-26T05:29:23.017Z,80.82
2023-02-26T05:34:25.132Z,80.86
2023-02-26T05:39:26.772Z,81.40
2023-02-26T05:44:28.436Z,81.06
2023-02-26T05:49:30.374Z,81.35
2023-02-26T05:54:32.107Z,81.41
2023-02-26T05:59:43.768Z,81.69
2023-02-26T06:04:46.004Z,82.11
2023-02-26T06:09:47.689Z,81.39
2023-02-26T06:14:49.400Z,81.74
2023-02-26T06:19:52.187Z,81.98
2023-02-26T06:24:55.165Z,81.54
2023-02-26T06:29:57.065Z,81.59
2023-02-26T06:34:58.813Z,81.77
2023-02-26T06:40:00.501Z,81.46
2023-02-26T06:45:02.754Z,81.31
2023-02-26T06:50:05.993Z,81.25
2023-02-26T06:55:08.472Z,80.97
2023-02-26T07:00:10.927Z,80.92
2023-02-26T07:05:13.382Z,81.19
2023-02-26T07:10:15.071Z,80.01
2023-02-26T07:15:17.081Z,79.86
2023-02-26T07:20:18.829Z,79.71
2023-02-26T07:25:20.670Z,79.51
2023-02-26T07:30:22.424Z,80.52
2023-02-26T07:35:24.424Z,79.94
2023-02-26T07:40:26.130Z,79.78
2023-02-26T07:45:27.861Z,78.71
2023-02-26T07:50:30.192Z,79.39
2023-02-26T07:55:31.911Z,79.26
2023-02-26T08:00:33.570Z,78.85
2023-02-26T08:05:35.357Z,78.40
2023-02-26T08:10:37.702Z,77.51
2023-02-26T08:15:41.644Z,76.66
2023-02-26T08:20:43.470Z,76.85
2023-02-26T08:25:45.802Z,74.27
2023-02-26T08:30:47.502Z,75.48
2023-02-26T08:35:49.998Z,75.86
2023-02-26T08:40:52.763Z,74.11
2023-02-26T08:45:56.431Z,74.40
2023-02-26T08:50:58.129Z,75.21
2023-02-26T08:55:59.771Z,74.24
2023-02-26T09:01:01.388Z,73.57
2023-02-26T09:06:04.597Z,73.51
2023-02-26T09:11:06.269Z,69.46
2023-02-26T09:16:08.644Z,65.21
2023-02-26T09:21:10.573Z,66.05
2023-02-26T09:26:12.303Z,66.32
2023-02-26T09:31:14.038Z,60.61
2023-02-26T09:36:15.905Z,59.97
2023-02-26T09:41:26.040Z,62.65
2023-02-26T09:46:47.126Z,63.09
2023-02-26T09:51:55.422Z,63.81
2023-02-26T09:57:00.746Z,64.10
2023-02-26T10:02:16.363Z,65.77
2023-02-26T10:07:33.244Z,66.93
2023-02-26T10:12:42.018Z,65.25
2023-02-26T10:17:56.114Z,67.10
2023-02-26T10:23:18.498Z,67.77
2023-02-26T10:28:44.510Z,69.19
2023-02-26T10:33:58.652Z,71.24
2023-02-26T10:39:20.289Z,70.57
2023-02-26T10:44:30.130Z,70.55
2023-02-26T10:49:51.524Z,70.70
2023-02-26T10:55:11.007Z,71.83
2023-02-26T11:00:19.799Z,73.28
2023-02-26T11:05:23.232Z,74.55
2023-02-26T11:10:28.956Z,72.41
2023-02-26T11:15:30.873Z,72.19
2023-02-26T11:20:37.802Z,71.66
2023-02-26T11:25:41.028Z,70.27
2023-02-26T11:30:44.969Z,69.45
2023-02-26T11:35:47.242Z,68.85
2023-02-26T11:40:56.147Z,68.00
2023-02-26T11:46:00.942Z,65.29
2023-02-26T11:51:05.747Z,62.76
2023-02-26T11:56:25.832Z,64.04
2023-02-26T12:01:29.994Z,64.40
2023-02-26T12:06:31.762Z,63.27
2023-02-26T12:11:50.819Z,63.51
2023-02-26T12:17:21.782Z,62.79
2023-02-26T12:22:54.698Z,62.37
2023-02-26T12:28:02.676Z,63.43
2023-02-26T12:33:18.493Z,65.56
2023-02-26T12:38:34.968Z,66.15
2023-02-26T12:43:45.822Z,67.24
2023-02-26T12:49:05.860Z,69.03
2023-02-26T12:54:34.286Z,70.26
2023-02-26T12:59:50.234Z,72.09
2023-02-26T13:05:13.655Z,73.18
2023-02-26T13:10:53.028Z,73.64
2023-02-26T13:16:22.888Z,73.15
2023-02-26T13:21:48.946Z,72.96
2023-02-26T13:26:52.958Z,72.31
2023-02-26T13:32:03.008Z,71.57
2023-02-26T13:37:05.732Z,70.91
2023-02-26T13:42:30.530Z,70.74
2023-02-26T13:48:03.044Z,70.51
2023-02-26T13:53:27.568Z,71.20
2023-02-26T13:58:35.312Z,71.45
2023-02-26T14:03:46.633Z,71.13
2023-02-26T14:08:51.684Z,70.85
2023-02-26T14:14:16.799Z,70.92
2023-02-26T14:19:28.294Z,70.61
2023-02-26T14:24:38.855Z,70.66
2023-02-26T14:29:53.532Z,71.02
2023-02-26T14:35:00.140Z,71.78
2023-02-26T14:40:10.921Z,72.46
2023-02-26T14:45:32.972Z,72.22
2023-02-26T14:51:06.686Z,71.76
2023-02-26T14:56:27.429Z,71.69
2023-02-26T15:01:47.312Z,72.00
2023-02-26T15:07:07.929Z,72.26
2023-02-26T15:12:23.816Z,72.78
2023-02-26T15:17:53.123Z,72.25
2023-02-26T15:23:22.849Z,72.04
2023-02-26T15:28:41.101Z,71.99
2023-02-26T15:33:42.904Z,71.83
2023-02-26T15:38:55.344Z,71.37
2023-02-26T15:44:28.224Z,71.69
2023-02-26T15:49:34.922Z,71.69
2023-02-26T15:54:50.574Z,71.94
2023-02-26T16:00:00.969Z,72.14
2023-02-26T16:05:04.487Z,71.91
2023-02-26T16:10:15.891Z,72.07
2023-02-26T16:15:35.064Z,72.40
2023-02-26T16:20:47.967Z,72.57
2023-02-26T16:25:54.259Z,72.71
2023-02-26T16:30:58.999Z,72.51
2023-02-26T16:36:24.825Z,72.51
2023-02-26T16:41:30.884Z,72.80
2023-02-26T16:46:46.162Z,72.56
2023-02-26T16:51:48.819Z,72.50
2023-02-26T16:57:16.667Z,72.04
2023-02-26T17:02:22.488Z,72.13
2023-02-26T17:07:33.089Z,72.63
2023-02-26T17:12:49.756Z,72.46
2023-02-26T17:17:51.735Z,72.62
2023-02-26T17:22:54.346Z,72.69
2023-02-26T17:27:57.163Z,72.82
2023-02-26T17:33:04.936Z,73.00
2023-02-26T17:38:07.256Z,73.01
2023-02-26T17:43:10.098Z,72.89
2023-02-26T17:48:14.895Z,73.23
2023-02-26T17:53:18.817Z,73.28
2023-02-26T17:58:27.999Z,73.55
2023-02-26T18:03:29.975Z,73.71
2023-02-26T18:08:34.535Z,73.75
2023-02-26T18:13:36.344Z,73.61
2023-02-26T18:18:38.088Z,73.78
2023-02-26T18:23:40.131Z,73.68
2023-02-26T18:28:42.223Z,73.56
2023-02-26T18:33:45.026Z,73.87
2023-02-26T18:38:47.000Z,74.24
2023-02-26T18:43:49.000Z,74.76
2023-02-26T18:48:51.386Z,74.52
2023-02-26T18:53:53.257Z,74.37
2023-02-26T18:58:55.215Z,74.30
2023-02-26T19:03:56.992Z,74.53
2023-02-26T19:09:02.726Z,74.69
2023-02-26T19:14:05.385Z,74.32
2023-02-26T19:19:11.187Z,74.43
2023-02-26T19:24:14.704Z,74.34
2023-02-26T19:29:18.763Z,74.36
2023-02-26T19:34:21.547Z,74.01
2023-02-26T19:39:23.533Z,74.40
2023-02-26T19:44:35.941Z,73.90
2023-02-26T19:49:37.575Z,73.85
2023-02-26T19:54:39.268Z,73.69
2023-02-26T19:59:41.874Z,74.71
2023-02-26T20:04:44.884Z,76.19
2023-02-26T20:09:48.734Z,77.13
2023-02-26T20:14:50.839Z,77.95
2023-02-26T20:19:52.618Z,78.08
2023-02-26T20:24:54.533Z,78.26
2023-02-26T20:29:56.243Z,78.13
2023-02-26T20:34:59.009Z,78.49
2023-02-26T20:40:00.787Z,78.44
2023-02-26T20:45:02.494Z,78.57
2023-02-26T20:50:04.736Z,78.94
2023-02-26T20:55:07.063Z,79.02
2023-02-26T21:00:15.312Z,79.32
2023-02-26T21:05:17.781Z,79.64
2023-02-26T21:10:20.031Z,79.72
2023-02-26T21:15:21.773Z,79.66
2023-02-26T21:20:23.534Z,79.69
2023-02-26T21:25:25.647Z,79.40
2023-02-26T21:30:28.829Z,79.30
2023-02-26T21:35:30.558Z,78.55
2023-02-26T21:40:32.205Z,78.12
2023-02-26T21:45:36.482Z,78.02
2023-02-26T21:50:38.126Z,77.78
2023-02-26T21:55:39.781Z,77.24
2023-02-26T22:00:41.448Z,76.31
2023-02-26T22:05:43.187Z,76.20
2023-02-26T22:10:47.743Z,76.22
2023-02-26T22:15:49.636Z,75.69
2023-02-26T22:20:51.262Z,75.56
2023-02-26T22:25:53.001Z,75.55
2023-02-26T22:30:56.351Z,75.52
2023-02-26T22:35:59.951Z,75.61
2023-02-26T22:41:01.904Z,75.92
2023-02-26T22:46:05.831Z,75.58
2023-02-26T22:51:07.848Z,75.42
2023-02-26T22:56:09.587Z,75.71
2023-02-26T23:01:11.325Z,75.65
2023-02-26T23:06:13.580Z,75.87
2023-02-26T23:11:15.326Z,75.43
2023-02-26T23:16:17.105Z,75.28
2023-02-26T23:21:19.172Z,75.33
2023-02-26T23:26:20.928Z,75.38
2023-02-26T23:31:22.689Z,75.22
2023-02-26T23:36:24.401Z,75.00
2023-02-26T23:41:26.383Z,75.09
2023-02-26T23:46:28.327Z,74.95
2023-02-26T23:51:30.387Z,75.26
2023-02-26T23:56:32.032Z,75.52
